sensor_id;sensor_type;location;lat;lon;timestamp;P1;durP1;ratioP1;P2;durP2;ratioP2
64520;SDS011;50896;46.714;17.322;2023-03-23T00:01:47;14.25;;;7.30;;
64520;SDS011;50896;46.714;17.322;2023-03-23T00:04:15;14.77;;;6.45;;
64520;SDS011;50896;46.714;17.322;2023-03-23T00:06:42;8.70;;;5.82;;
64520;SDS011;50896;46.714;17.322;2023-03-23T00:09:11;10.40;;;5.20;;
64520;SDS011;50896;46.714;17.322;2023-03-23T00:11:40;8.98;;;5.55;;
64520;SDS011;50896;46.714;17.322;2023-03-23T00:14:08;9.60;;;5.70;;
64520;SDS011;50896;46.714;17.322;2023-03-23T00:16:39;11.88;;;6.00;;
64520;SDS011;50896;46.714;17.322;2023-03-23T00:19:07;8.05;;;5.28;;
64520;SDS011;50896;46.714;17.322;2023-03-23T00:21:37;8.70;;;5.43;;
64520;SDS011;50896;46.714;17.322;2023-03-23T00:24:08;14.32;;;6.10;;
64520;SDS011;50896;46.714;17.322;2023-03-23T00:26:42;8.25;;;5.47;;
64520;SDS011;50896;46.714;17.322;2023-03-23T00:29:12;9.32;;;5.43;;
64520;SDS011;50896;46.714;17.322;2023-03-23T00:31:40;6.68;;;5.05;;
64520;SDS011;50896;46.714;17.322;2023-03-23T00:34:12;8.48;;;5.30;;
64520;SDS011;50896;46.714;17.322;2023-03-23T00:36:44;8.52;;;4.88;;
64520;SDS011;50896;46.714;17.322;2023-03-23T00:39:12;6.35;;;4.78;;
64520;SDS011;50896;46.714;17.322;2023-03-23T00:41:39;7.35;;;4.85;;
64520;SDS011;50896;46.714;17.322;2023-03-23T00:44:04;6.88;;;5.10;;
64520;SDS011;50896;46.714;17.322;2023-03-23T00:46:30;8.27;;;5.22;;
64520;SDS011;50896;46.714;17.322;2023-03-23T00:48:56;7.85;;;5.13;;
64520;SDS011;50896;46.714;17.322;2023-03-23T00:51:23;10.07;;;4.57;;
64520;SDS011;50896;46.714;17.322;2023-03-23T00:53:49;7.57;;;4.90;;
64520;SDS011;50896;46.714;17.322;2023-03-23T00:56:16;8.18;;;4.88;;
64520;SDS011;50896;46.714;17.322;2023-03-23T00:58:41;6.05;;;4.55;;
64520;SDS011;50896;46.714;17.322;2023-03-23T01:01:07;6.18;;;4.30;;
64520;SDS011;50896;46.714;17.322;2023-03-23T01:03:33;6.00;;;4.15;;
64520;SDS011;50896;46.714;17.322;2023-03-23T01:06:04;8.10;;;4.28;;
64520;SDS011;50896;46.714;17.322;2023-03-23T01:08:31;6.00;;;4.38;;
64520;SDS011;50896;46.714;17.322;2023-03-23T01:11:04;9.30;;;4.60;;
64520;SDS011;50896;46.714;17.322;2023-03-23T01:13:32;6.15;;;4.25;;
64520;SDS011;50896;46.714;17.322;2023-03-23T01:15:58;6.57;;;4.70;;
64520;SDS011;50896;46.714;17.322;2023-03-23T01:18:24;6.63;;;3.75;;
64520;SDS011;50896;46.714;17.322;2023-03-23T01:20:49;7.72;;;4.00;;
64520;SDS011;50896;46.714;17.322;2023-03-23T01:23:15;7.47;;;4.82;;
64520;SDS011;50896;46.714;17.322;2023-03-23T01:25:41;6.32;;;4.45;;
64520;SDS011;50896;46.714;17.322;2023-03-23T01:28:07;6.35;;;4.15;;
64520;SDS011;50896;46.714;17.322;2023-03-23T01:30:32;5.93;;;4.68;;
64520;SDS011;50896;46.714;17.322;2023-03-23T01:32:58;7.25;;;4.60;;
64520;SDS011;50896;46.714;17.322;2023-03-23T01:35:24;6.93;;;4.28;;
64520;SDS011;50896;46.714;17.322;2023-03-23T01:37:51;6.28;;;4.40;;
64520;SDS011;50896;46.714;17.322;2023-03-23T01:40:17;8.10;;;4.93;;
64520;SDS011;50896;46.714;17.322;2023-03-23T01:42:43;7.80;;;4.50;;
64520;SDS011;50896;46.714;17.322;2023-03-23T01:47:52;4.45;;;3.90;;
64520;SDS011;50896;46.714;17.322;2023-03-23T01:50:30;6.05;;;4.25;;
64520;SDS011;50896;46.714;17.322;2023-03-23T01:53:01;6.30;;;4.22;;
64520;SDS011;50896;46.714;17.322;2023-03-23T01:55:35;5.85;;;3.80;;
64520;SDS011;50896;46.714;17.322;2023-03-23T01:58:04;8.82;;;4.47;;
64520;SDS011;50896;46.714;17.322;2023-03-23T02:00:31;6.80;;;4.28;;
64520;SDS011;50896;46.714;17.322;2023-03-23T02:02:58;6.18;;;4.30;;
64520;SDS011;50896;46.714;17.322;2023-03-23T02:05:59;6.03;;;3.65;;
64520;SDS011;50896;46.714;17.322;2023-03-23T02:08:27;7.07;;;4.00;;
64520;SDS011;50896;46.714;17.322;2023-03-23T02:10:55;6.03;;;4.05;;
64520;SDS011;50896;46.714;17.322;2023-03-23T02:13:21;5.72;;;4.53;;
64520;SDS011;50896;46.714;17.322;2023-03-23T02:21:09;7.28;;;4.25;;
64520;SDS011;50896;46.714;17.322;2023-03-23T02:27:09;5.78;;;4.18;;
64520;SDS011;50896;46.714;17.322;2023-03-23T02:40:05;9.55;;;5.45;;
64520;SDS011;50896;46.714;17.322;2023-03-23T02:42:38;7.50;;;4.45;;
64520;SDS011;50896;46.714;17.322;2023-03-23T02:45:08;7.43;;;4.10;;
64520;SDS011;50896;46.714;17.322;2023-03-23T02:47:37;6.22;;;4.00;;
64520;SDS011;50896;46.714;17.322;2023-03-23T02:50:04;5.78;;;4.13;;
64520;SDS011;50896;46.714;17.322;2023-03-23T02:52:35;5.38;;;4.05;;
64520;SDS011;50896;46.714;17.322;2023-03-23T02:55:04;5.00;;;3.75;;
64520;SDS011;50896;46.714;17.322;2023-03-23T02:57:33;5.30;;;4.03;;
64520;SDS011;50896;46.714;17.322;2023-03-23T03:00:01;7.57;;;3.92;;
64520;SDS011;50896;46.714;17.322;2023-03-23T03:02:31;7.55;;;4.30;;
64520;SDS011;50896;46.714;17.322;2023-03-23T03:05:04;7.78;;;4.00;;
64520;SDS011;50896;46.714;17.322;2023-03-23T03:07:43;5.10;;;3.97;;
64520;SDS011;50896;46.714;17.322;2023-03-23T03:12:55;6.22;;;4.07;;
64520;SDS011;50896;46.714;17.322;2023-03-23T03:18:14;6.13;;;3.97;;
64520;SDS011;50896;46.714;17.322;2023-03-23T03:20:42;7.07;;;4.15;;
64520;SDS011;50896;46.714;17.322;2023-03-23T03:23:12;5.13;;;3.58;;
64520;SDS011;50896;46.714;17.322;2023-03-23T03:28:17;5.13;;;3.67;;
64520;SDS011;50896;46.714;17.322;2023-03-23T03:30:50;6.65;;;4.50;;
64520;SDS011;50896;46.714;17.322;2023-03-23T03:33:21;8.07;;;4.90;;
64520;SDS011;50896;46.714;17.322;2023-03-23T03:35:54;6.70;;;4.43;;
64520;SDS011;50896;46.714;17.322;2023-03-23T03:40:49;6.13;;;3.95;;
64520;SDS011;50896;46.714;17.322;2023-03-23T03:43:16;7.43;;;4.60;;
64520;SDS011;50896;46.714;17.322;2023-03-23T03:45:42;6.90;;;4.28;;
64520;SDS011;50896;46.714;17.322;2023-03-23T03:48:10;7.22;;;4.38;;
64520;SDS011;50896;46.714;17.322;2023-03-23T03:50:36;8.15;;;4.78;;
64520;SDS011;50896;46.714;17.322;2023-03-23T03:53:04;8.00;;;5.55;;
64520;SDS011;50896;46.714;17.322;2023-03-23T03:55:31;7.22;;;4.85;;
64520;SDS011;50896;46.714;17.322;2023-03-23T03:58:02;10.10;;;5.22;;
64520;SDS011;50896;46.714;17.322;2023-03-23T04:00:48;7.75;;;4.40;;
64520;SDS011;50896;46.714;17.322;2023-03-23T04:03:19;7.43;;;4.50;;
64520;SDS011;50896;46.714;17.322;2023-03-23T04:06:03;7.45;;;4.80;;
64520;SDS011;50896;46.714;17.322;2023-03-23T04:08:29;6.60;;;4.43;;
64520;SDS011;50896;46.714;17.322;2023-03-23T04:10:55;5.80;;;4.40;;
64520;SDS011;50896;46.714;17.322;2023-03-23T04:13:23;6.88;;;3.92;;
64520;SDS011;50896;46.714;17.322;2023-03-23T04:18:31;7.40;;;4.18;;
64520;SDS011;50896;46.714;17.322;2023-03-23T04:21:00;9.00;;;4.70;;
64520;SDS011;50896;46.714;17.322;2023-03-23T04:23:28;7.60;;;4.15;;
64520;SDS011;50896;46.714;17.322;2023-03-23T04:25:58;7.10;;;3.90;;
64520;SDS011;50896;46.714;17.322;2023-03-23T04:28:31;5.05;;;3.85;;
64520;SDS011;50896;46.714;17.322;2023-03-23T04:31:17;5.28;;;3.90;;
64520;SDS011;50896;46.714;17.322;2023-03-23T04:33:48;6.63;;;4.25;;
64520;SDS011;50896;46.714;17.322;2023-03-23T04:36:15;7.63;;;4.50;;
64520;SDS011;50896;46.714;17.322;2023-03-23T04:38:51;7.72;;;4.22;;
64520;SDS011;50896;46.714;17.322;2023-03-23T04:41:22;8.52;;;4.60;;
64520;SDS011;50896;46.714;17.322;2023-03-23T04:44:06;7.90;;;5.07;;
64520;SDS011;50896;46.714;17.322;2023-03-23T04:46:39;6.90;;;4.32;;
64520;SDS011;50896;46.714;17.322;2023-03-23T04:49:08;7.00;;;4.70;;
64520;SDS011;50896;46.714;17.322;2023-03-23T04:51:37;6.83;;;4.27;;
64520;SDS011;50896;46.714;17.322;2023-03-23T04:54:19;7.68;;;4.30;;
64520;SDS011;50896;46.714;17.322;2023-03-23T04:59:15;7.40;;;3.97;;
64520;SDS011;50896;46.714;17.322;2023-03-23T05:01:51;9.32;;;4.35;;
64520;SDS011;50896;46.714;17.322;2023-03-23T05:04:19;7.50;;;4.30;;
64520;SDS011;50896;46.714;17.322;2023-03-23T05:06:56;5.63;;;4.35;;
64520;SDS011;50896;46.714;17.322;2023-03-23T05:09:26;7.25;;;4.07;;
64520;SDS011;50896;46.714;17.322;2023-03-23T05:11:52;5.63;;;4.03;;
64520;SDS011;50896;46.714;17.322;2023-03-23T05:14:17;7.43;;;4.63;;
64520;SDS011;50896;46.714;17.322;2023-03-23T05:16:51;5.85;;;4.22;;
64520;SDS011;50896;46.714;17.322;2023-03-23T05:19:18;5.88;;;4.50;;
64520;SDS011;50896;46.714;17.322;2023-03-23T05:21:45;6.90;;;4.78;;
64520;SDS011;50896;46.714;17.322;2023-03-23T05:24:10;7.45;;;4.80;;
64520;SDS011;50896;46.714;17.322;2023-03-23T05:26:37;6.82;;;4.55;;
64520;SDS011;50896;46.714;17.322;2023-03-23T05:29:09;6.22;;;4.43;;
64520;SDS011;50896;46.714;17.322;2023-03-23T05:31:46;6.68;;;4.72;;
64520;SDS011;50896;46.714;17.322;2023-03-23T05:34:13;6.30;;;4.07;;
64520;SDS011;50896;46.714;17.322;2023-03-23T05:36:46;9.05;;;4.55;;
64520;SDS011;50896;46.714;17.322;2023-03-23T05:39:31;8.23;;;5.00;;
64520;SDS011;50896;46.714;17.322;2023-03-23T05:42:33;7.68;;;4.38;;
64520;SDS011;50896;46.714;17.322;2023-03-23T05:45:09;6.57;;;4.45;;
64520;SDS011;50896;46.714;17.322;2023-03-23T05:47:37;7.20;;;4.68;;
64520;SDS011;50896;46.714;17.322;2023-03-23T05:50:08;6.25;;;4.65;;
64520;SDS011;50896;46.714;17.322;2023-03-23T05:52:35;7.95;;;4.60;;
64520;SDS011;50896;46.714;17.322;2023-03-23T05:55:04;8.13;;;4.85;;
64520;SDS011;50896;46.714;17.322;2023-03-23T05:57:34;5.90;;;4.30;;
64520;SDS011;50896;46.714;17.322;2023-03-23T06:00:04;6.07;;;4.70;;
64520;SDS011;50896;46.714;17.322;2023-03-23T06:02:46;6.57;;;4.38;;
64520;SDS011;50896;46.714;17.322;2023-03-23T06:05:19;8.98;;;4.57;;
64520;SDS011;50896;46.714;17.322;2023-03-23T06:07:49;6.18;;;4.45;;
64520;SDS011;50896;46.714;17.322;2023-03-23T06:10:15;6.43;;;4.55;;
64520;SDS011;50896;46.714;17.322;2023-03-23T06:12:45;5.82;;;4.10;;
64520;SDS011;50896;46.714;17.322;2023-03-23T06:15:11;6.93;;;4.38;;
64520;SDS011;50896;46.714;17.322;2023-03-23T06:18:00;6.78;;;4.20;;
64520;SDS011;50896;46.714;17.322;2023-03-23T06:20:46;7.75;;;4.55;;
64520;SDS011;50896;46.714;17.322;2023-03-23T06:23:32;5.30;;;3.95;;
64520;SDS011;50896;46.714;17.322;2023-03-23T06:25:59;7.45;;;4.18;;
64520;SDS011;50896;46.714;17.322;2023-03-23T06:28:29;7.50;;;4.47;;
64520;SDS011;50896;46.714;17.322;2023-03-23T06:30:55;6.75;;;4.28;;
64520;SDS011;50896;46.714;17.322;2023-03-23T06:33:23;6.35;;;4.53;;
64520;SDS011;50896;46.714;17.322;2023-03-23T06:36:13;6.18;;;4.63;;
64520;SDS011;50896;46.714;17.322;2023-03-23T06:38:50;7.53;;;4.80;;
64520;SDS011;50896;46.714;17.322;2023-03-23T06:41:21;8.63;;;4.70;;
64520;SDS011;50896;46.714;17.322;2023-03-23T06:43:47;6.25;;;4.20;;
64520;SDS011;50896;46.714;17.322;2023-03-23T06:46:17;9.77;;;4.93;;
64520;SDS011;50896;46.714;17.322;2023-03-23T06:48:51;9.10;;;5.25;;
64520;SDS011;50896;46.714;17.322;2023-03-23T06:51:24;5.88;;;4.22;;
64520;SDS011;50896;46.714;17.322;2023-03-23T06:53:52;8.32;;;4.88;;
64520;SDS011;50896;46.714;17.322;2023-03-23T06:56:18;6.55;;;4.63;;
64520;SDS011;50896;46.714;17.322;2023-03-23T06:58:45;8.70;;;5.32;;
64520;SDS011;50896;46.714;17.322;2023-03-23T07:01:11;7.22;;;4.93;;
64520;SDS011;50896;46.714;17.322;2023-03-23T07:03:43;8.90;;;5.82;;
64520;SDS011;50896;46.714;17.322;2023-03-23T07:06:11;9.77;;;5.95;;
64520;SDS011;50896;46.714;17.322;2023-03-23T07:08:45;11.70;;;5.95;;
64520;SDS011;50896;46.714;17.322;2023-03-23T07:11:16;13.18;;;5.55;;
64520;SDS011;50896;46.714;17.322;2023-03-23T07:13:42;11.65;;;5.60;;
64520;SDS011;50896;46.714;17.322;2023-03-23T07:16:08;13.65;;;5.65;;
64520;SDS011;50896;46.714;17.322;2023-03-23T07:18:37;12.88;;;6.22;;
64520;SDS011;50896;46.714;17.322;2023-03-23T07:21:04;9.70;;;5.57;;
64520;SDS011;50896;46.714;17.322;2023-03-23T07:23:31;20.98;;;6.13;;
64520;SDS011;50896;46.714;17.322;2023-03-23T07:26:01;12.30;;;5.78;;
64520;SDS011;50896;46.714;17.322;2023-03-23T07:28:37;7.75;;;5.18;;
64520;SDS011;50896;46.714;17.322;2023-03-23T07:31:35;6.88;;;5.07;;
64520;SDS011;50896;46.714;17.322;2023-03-23T07:34:02;6.38;;;4.90;;
64520;SDS011;50896;46.714;17.322;2023-03-23T07:36:58;10.02;;;5.03;;
64520;SDS011;50896;46.714;17.322;2023-03-23T07:39:27;6.85;;;5.18;;
64520;SDS011;50896;46.714;17.322;2023-03-23T07:41:55;8.38;;;4.97;;
64520;SDS011;50896;46.714;17.322;2023-03-23T07:44:33;8.35;;;4.70;;
64520;SDS011;50896;46.714;17.322;2023-03-23T07:47:05;6.88;;;4.93;;
64520;SDS011;50896;46.714;17.322;2023-03-23T07:49:32;7.70;;;4.82;;
64520;SDS011;50896;46.714;17.322;2023-03-23T07:52:10;8.55;;;4.72;;
64520;SDS011;50896;46.714;17.322;2023-03-23T07:54:36;9.30;;;5.47;;
64520;SDS011;50896;46.714;17.322;2023-03-23T07:57:14;8.02;;;4.75;;
64520;SDS011;50896;46.714;17.322;2023-03-23T07:59:46;6.53;;;4.70;;
64520;SDS011;50896;46.714;17.322;2023-03-23T08:02:12;7.57;;;4.65;;
64520;SDS011;50896;46.714;17.322;2023-03-23T08:04:41;8.88;;;4.90;;
64520;SDS011;50896;46.714;17.322;2023-03-23T08:07:07;6.65;;;4.57;;
64520;SDS011;50896;46.714;17.322;2023-03-23T08:09:51;6.40;;;4.60;;
64520;SDS011;50896;46.714;17.322;2023-03-23T08:12:36;6.50;;;4.45;;
64520;SDS011;50896;46.714;17.322;2023-03-23T08:15:33;6.63;;;4.65;;
64520;SDS011;50896;46.714;17.322;2023-03-23T08:18:17;10.35;;;5.80;;
64520;SDS011;50896;46.714;17.322;2023-03-23T08:21:21;9.63;;;5.00;;
64520;SDS011;50896;46.714;17.322;2023-03-23T08:24:06;11.05;;;5.40;;
64520;SDS011;50896;46.714;17.322;2023-03-23T08:26:47;6.70;;;4.70;;
64520;SDS011;50896;46.714;17.322;2023-03-23T08:29:22;5.63;;;4.32;;
64520;SDS011;50896;46.714;17.322;2023-03-23T08:32:18;6.65;;;4.57;;
64520;SDS011;50896;46.714;17.322;2023-03-23T08:35:06;9.48;;;4.82;;
64520;SDS011;50896;46.714;17.322;2023-03-23T08:37:37;6.22;;;4.72;;
64520;SDS011;50896;46.714;17.322;2023-03-23T08:40:26;7.43;;;4.45;;
64520;SDS011;50896;46.714;17.322;2023-03-23T08:43:15;7.50;;;4.90;;
64520;SDS011;50896;46.714;17.322;2023-03-23T08:46:05;7.15;;;4.72;;
64520;SDS011;50896;46.714;17.322;2023-03-23T08:51:46;8.07;;;4.75;;
64520;SDS011;50896;46.714;17.322;2023-03-23T08:54:32;6.70;;;4.70;;
64520;SDS011;50896;46.714;17.322;2023-03-23T08:57:16;7.20;;;5.05;;
64520;SDS011;50896;46.714;17.322;2023-03-23T09:00:04;7.15;;;4.60;;
64520;SDS011;50896;46.714;17.322;2023-03-23T09:03:01;11.40;;;5.03;;
64520;SDS011;50896;46.714;17.322;2023-03-23T09:05:39;7.53;;;4.88;;
64520;SDS011;50896;46.714;17.322;2023-03-23T09:08:22;8.80;;;5.20;;
64520;SDS011;50896;46.714;17.322;2023-03-23T09:10:48;6.97;;;5.15;;
64520;SDS011;50896;46.714;17.322;2023-03-23T09:13:15;8.23;;;5.72;;
64520;SDS011;50896;46.714;17.322;2023-03-23T09:15:41;7.95;;;5.93;;
64520;SDS011;50896;46.714;17.322;2023-03-23T09:18:06;9.13;;;5.32;;
64520;SDS011;50896;46.714;17.322;2023-03-23T09:20:32;11.25;;;5.97;;
64520;SDS011;50896;46.714;17.322;2023-03-23T09:22:58;11.43;;;6.35;;
64520;SDS011;50896;46.714;17.322;2023-03-23T09:25:25;7.55;;;5.40;;
64520;SDS011;50896;46.714;17.322;2023-03-23T09:27:53;9.18;;;5.75;;
64520;SDS011;50896;46.714;17.322;2023-03-23T09:30:23;11.10;;;5.43;;
64520;SDS011;50896;46.714;17.322;2023-03-23T09:32:52;10.55;;;5.32;;
64520;SDS011;50896;46.714;17.322;2023-03-23T09:35:18;8.95;;;5.43;;
64520;SDS011;50896;46.714;17.322;2023-03-23T09:37:47;6.93;;;5.60;;
64520;SDS011;50896;46.714;17.322;2023-03-23T09:40:20;7.38;;;5.20;;
64520;SDS011;50896;46.714;17.322;2023-03-23T09:42:55;7.05;;;5.50;;
64520;SDS011;50896;46.714;17.322;2023-03-23T09:53:54;7.13;;;5.07;;
64520;SDS011;50896;46.714;17.322;2023-03-23T09:56:24;7.90;;;4.47;;
64520;SDS011;50896;46.714;17.322;2023-03-23T09:58:57;10.40;;;5.10;;
64520;SDS011;50896;46.714;17.322;2023-03-23T10:01:30;6.43;;;4.65;;
64520;SDS011;50896;46.714;17.322;2023-03-23T10:04:05;8.43;;;4.65;;
64520;SDS011;50896;46.714;17.322;2023-03-23T10:06:39;6.13;;;4.25;;
64520;SDS011;50896;46.714;17.322;2023-03-23T10:09:04;6.88;;;4.53;;
64520;SDS011;50896;46.714;17.322;2023-03-23T10:19:38;7.80;;;2.70;;
64520;SDS011;50896;46.714;17.322;2023-03-23T10:22:25;5.57;;;2.78;;
64520;SDS011;50896;46.714;17.322;2023-03-23T10:30:46;4.15;;;2.70;;
64520;SDS011;50896;46.714;17.322;2023-03-23T10:33:20;7.45;;;3.15;;
64520;SDS011;50896;46.714;17.322;2023-03-23T10:35:59;4.78;;;3.13;;
64520;SDS011;50896;46.714;17.322;2023-03-23T10:38:38;9.90;;;2.92;;
64520;SDS011;50896;46.714;17.322;2023-03-23T10:41:16;5.85;;;3.40;;
64520;SDS011;50896;46.714;17.322;2023-03-23T10:43:44;8.02;;;3.03;;
64520;SDS011;50896;46.714;17.322;2023-03-23T10:49:02;6.53;;;3.70;;
64520;SDS011;50896;46.714;17.322;2023-03-23T10:51:36;6.25;;;3.00;;
64520;SDS011;50896;46.714;17.322;2023-03-23T10:54:07;9.68;;;2.92;;
64520;SDS011;50896;46.714;17.322;2023-03-23T10:59:12;6.55;;;2.97;;
64520;SDS011;50896;46.714;17.322;2023-03-23T11:01:48;8.32;;;3.30;;
64520;SDS011;50896;46.714;17.322;2023-03-23T11:04:17;5.07;;;3.05;;
64520;SDS011;50896;46.714;17.322;2023-03-23T11:07:02;7.95;;;2.75;;
64520;SDS011;50896;46.714;17.322;2023-03-23T11:09:36;5.60;;;2.80;;
64520;SDS011;50896;46.714;17.322;2023-03-23T11:12:03;7.05;;;2.92;;
64520;SDS011;50896;46.714;17.322;2023-03-23T11:14:30;6.28;;;2.60;;
64520;SDS011;50896;46.714;17.322;2023-03-23T11:17:00;8.18;;;2.97;;
64520;SDS011;50896;46.714;17.322;2023-03-23T11:19:32;4.97;;;2.88;;
64520;SDS011;50896;46.714;17.322;2023-03-23T11:24:32;4.93;;;3.03;;
64520;SDS011;50896;46.714;17.322;2023-03-23T11:26:59;4.77;;;2.93;;
64520;SDS011;50896;46.714;17.322;2023-03-23T11:29:28;3.88;;;2.80;;
64520;SDS011;50896;46.714;17.322;2023-03-23T11:34:29;6.17;;;3.00;;
64520;SDS011;50896;46.714;17.322;2023-03-23T11:37:03;6.55;;;3.00;;
64520;SDS011;50896;46.714;17.322;2023-03-23T11:39:54;4.63;;;2.38;;
64520;SDS011;50896;46.714;17.322;2023-03-23T11:42:34;4.25;;;2.40;;
64520;SDS011;50896;46.714;17.322;2023-03-23T11:50:55;4.95;;;2.70;;
64520;SDS011;50896;46.714;17.322;2023-03-23T11:56:09;7.53;;;4.30;;
64520;SDS011;50896;46.714;17.322;2023-03-23T12:01:09;6.00;;;4.15;;
64520;SDS011;50896;46.714;17.322;2023-03-23T12:06:12;12.23;;;6.82;;
64520;SDS011;50896;46.714;17.322;2023-03-23T12:14:13;11.23;;;6.13;;
64520;SDS011;50896;46.714;17.322;2023-03-23T12:19:20;14.00;;;5.57;;
64520;SDS011;50896;46.714;17.322;2023-03-23T12:38:07;11.77;;;6.93;;
64520;SDS011;50896;46.714;17.322;2023-03-23T12:49:17;14.10;;;6.10;;
64520;SDS011;50896;46.714;17.322;2023-03-23T12:51:29;10.85;;;6.15;;
64520;SDS011;50896;46.714;17.322;2023-03-23T12:54:16;10.32;;;5.68;;
64520;SDS011;50896;46.714;17.322;2023-03-23T12:57:04;8.38;;;5.88;;
64520;SDS011;50896;46.714;17.322;2023-03-23T13:00:17;12.70;;;7.63;;
64520;SDS011;50896;46.714;17.322;2023-03-23T13:02:53;15.98;;;7.20;;
64520;SDS011;50896;46.714;17.322;2023-03-23T13:08:14;10.63;;;6.40;;
64520;SDS011;50896;46.714;17.322;2023-03-23T13:13:13;7.95;;;5.25;;
64520;SDS011;50896;46.714;17.322;2023-03-23T13:18:18;8.80;;;5.25;;
64520;SDS011;50896;46.714;17.322;2023-03-23T13:23:33;9.52;;;5.50;;
64520;SDS011;50896;46.714;17.322;2023-03-23T13:26:14;8.15;;;5.47;;
64520;SDS011;50896;46.714;17.322;2023-03-23T13:31:23;9.25;;;5.80;;
64520;SDS011;50896;46.714;17.322;2023-03-23T13:36:38;10.93;;;7.68;;
64520;SDS011;50896;46.714;17.322;2023-03-23T13:39:16;10.48;;;8.07;;
64520;SDS011;50896;46.714;17.322;2023-03-23T13:41:45;14.02;;;9.00;;
64520;SDS011;50896;46.714;17.322;2023-03-23T13:50:11;12.60;;;9.05;;
64520;SDS011;50896;46.714;17.322;2023-03-23T13:53:00;12.63;;;9.18;;
64520;SDS011;50896;46.714;17.322;2023-03-23T13:55:39;14.20;;;9.27;;
64520;SDS011;50896;46.714;17.322;2023-03-23T13:58:26;12.23;;;9.00;;
64520;SDS011;50896;46.714;17.322;2023-03-23T14:03:47;14.50;;;9.32;;
64520;SDS011;50896;46.714;17.322;2023-03-23T14:06:19;14.05;;;8.48;;
64520;SDS011;50896;46.714;17.322;2023-03-23T14:09:22;11.15;;;7.40;;
64520;SDS011;50896;46.714;17.322;2023-03-23T14:12:00;11.98;;;7.70;;
64520;SDS011;50896;46.714;17.322;2023-03-23T14:14:39;11.93;;;6.60;;
64520;SDS011;50896;46.714;17.322;2023-03-23T14:17:18;10.27;;;6.38;;
64520;SDS011;50896;46.714;17.322;2023-03-23T14:19:55;9.60;;;5.82;;
64520;SDS011;50896;46.714;17.322;2023-03-23T14:22:34;10.82;;;5.43;;
64520;SDS011;50896;46.714;17.322;2023-03-23T14:25:14;8.15;;;4.75;;
64520;SDS011;50896;46.714;17.322;2023-03-23T14:27:42;9.65;;;4.78;;
64520;SDS011;50896;46.714;17.322;2023-03-23T14:30:12;8.73;;;4.63;;
64520;SDS011;50896;46.714;17.322;2023-03-23T14:32:40;8.40;;;4.60;;
64520;SDS011;50896;46.714;17.322;2023-03-23T14:35:07;9.63;;;4.80;;
64520;SDS011;50896;46.714;17.322;2023-03-23T14:37:40;8.93;;;4.40;;
64520;SDS011;50896;46.714;17.322;2023-03-23T14:40:08;6.53;;;4.20;;
64520;SDS011;50896;46.714;17.322;2023-03-23T14:42:40;7.93;;;3.92;;
64520;SDS011;50896;46.714;17.322;2023-03-23T14:45:07;9.20;;;4.43;;
64520;SDS011;50896;46.714;17.322;2023-03-23T14:47:38;6.82;;;4.28;;
64520;SDS011;50896;46.714;17.322;2023-03-23T14:52:56;8.02;;;4.15;;
64520;SDS011;50896;46.714;17.322;2023-03-23T14:57:51;8.88;;;4.35;;
64520;SDS011;50896;46.714;17.322;2023-03-23T15:00:21;9.75;;;4.15;;
64520;SDS011;50896;46.714;17.322;2023-03-23T15:02:57;5.60;;;3.80;;
64520;SDS011;50896;46.714;17.322;2023-03-23T15:05:36;7.27;;;4.10;;
64520;SDS011;50896;46.714;17.322;2023-03-23T15:08:07;6.47;;;3.63;;
64520;SDS011;50896;46.714;17.322;2023-03-23T15:10:37;10.70;;;3.80;;
64520;SDS011;50896;46.714;17.322;2023-03-23T15:13:04;5.75;;;3.42;;
64520;SDS011;50896;46.714;17.322;2023-03-23T15:15:31;5.35;;;3.17;;
64520;SDS011;50896;46.714;17.322;2023-03-23T15:17:59;5.03;;;3.20;;
64520;SDS011;50896;46.714;17.322;2023-03-23T15:22:54;4.07;;;2.80;;
64520;SDS011;50896;46.714;17.322;2023-03-23T15:27:54;7.15;;;3.30;;
64520;SDS011;50896;46.714;17.322;2023-03-23T15:32:47;4.47;;;2.95;;
64520;SDS011;50896;46.714;17.322;2023-03-23T15:35:20;5.87;;;3.30;;
64520;SDS011;50896;46.714;17.322;2023-03-23T15:37:58;6.90;;;3.08;;
64520;SDS011;50896;46.714;17.322;2023-03-23T15:40:26;4.32;;;2.95;;
64520;SDS011;50896;46.714;17.322;2023-03-23T15:45:32;6.93;;;3.00;;
64520;SDS011;50896;46.714;17.322;2023-03-23T15:48:04;5.90;;;3.08;;
64520;SDS011;50896;46.714;17.322;2023-03-23T15:50:36;3.88;;;2.78;;
64520;SDS011;50896;46.714;17.322;2023-03-23T15:53:19;5.43;;;3.50;;
64520;SDS011;50896;46.714;17.322;2023-03-23T15:55:45;7.72;;;3.30;;
64520;SDS011;50896;46.714;17.322;2023-03-23T15:58:12;8.25;;;4.53;;
64520;SDS011;50896;46.714;17.322;2023-03-23T16:00:40;9.35;;;5.05;;
64520;SDS011;50896;46.714;17.322;2023-03-23T16:03:10;8.67;;;5.50;;
64520;SDS011;50896;46.714;17.322;2023-03-23T16:05:42;4.30;;;2.75;;
64520;SDS011;50896;46.714;17.322;2023-03-23T16:08:12;7.25;;;3.10;;
64520;SDS011;50896;46.714;17.322;2023-03-23T16:10:40;6.18;;;3.30;;
64520;SDS011;50896;46.714;17.322;2023-03-23T16:13:09;4.40;;;2.83;;
64520;SDS011;50896;46.714;17.322;2023-03-23T16:15:36;4.43;;;2.90;;
64520;SDS011;50896;46.714;17.322;2023-03-23T16:18:03;5.85;;;2.75;;
64520;SDS011;50896;46.714;17.322;2023-03-23T16:20:30;17.08;;;5.75;;
64520;SDS011;50896;46.714;17.322;2023-03-23T16:22:58;16.60;;;8.75;;
64520;SDS011;50896;46.714;17.322;2023-03-23T16:25:25;14.73;;;7.05;;
64520;SDS011;50896;46.714;17.322;2023-03-23T16:27:52;7.10;;;4.07;;
64520;SDS011;50896;46.714;17.322;2023-03-23T16:30:23;7.72;;;3.97;;
64520;SDS011;50896;46.714;17.322;2023-03-23T16:32:52;6.90;;;3.40;;
64520;SDS011;50896;46.714;17.322;2023-03-23T16:35:23;4.78;;;3.30;;
64520;SDS011;50896;46.714;17.322;2023-03-23T16:37:51;6.93;;;3.83;;
64520;SDS011;50896;46.714;17.322;2023-03-23T16:40:35;5.65;;;3.20;;
64520;SDS011;50896;46.714;17.322;2023-03-23T16:43:03;5.55;;;3.60;;
64520;SDS011;50896;46.714;17.322;2023-03-23T16:45:36;6.97;;;3.60;;
64520;SDS011;50896;46.714;17.322;2023-03-23T16:48:09;5.80;;;3.03;;
64520;SDS011;50896;46.714;17.322;2023-03-23T16:50:38;7.03;;;2.90;;
64520;SDS011;50896;46.714;17.322;2023-03-23T16:53:06;7.45;;;2.78;;
64520;SDS011;50896;46.714;17.322;2023-03-23T16:55:34;5.28;;;2.67;;
64520;SDS011;50896;46.714;17.322;2023-03-23T16:58:02;9.23;;;3.00;;
64520;SDS011;50896;46.714;17.322;2023-03-23T17:00:32;10.43;;;3.25;;
64520;SDS011;50896;46.714;17.322;2023-03-23T17:02:59;9.90;;;3.38;;
64520;SDS011;50896;46.714;17.322;2023-03-23T17:05:27;13.55;;;3.47;;
64520;SDS011;50896;46.714;17.322;2023-03-23T17:07:55;9.30;;;2.65;;
64520;SDS011;50896;46.714;17.322;2023-03-23T17:10:23;6.35;;;3.00;;
64520;SDS011;50896;46.714;17.322;2023-03-23T17:12:52;7.80;;;2.88;;
64520;SDS011;50896;46.714;17.322;2023-03-23T17:15:20;9.05;;;3.85;;
64520;SDS011;50896;46.714;17.322;2023-03-23T17:17:47;10.30;;;3.45;;
64520;SDS011;50896;46.714;17.322;2023-03-23T17:20:14;7.88;;;3.10;;
64520;SDS011;50896;46.714;17.322;2023-03-23T17:22:41;13.35;;;3.00;;
64520;SDS011;50896;46.714;17.322;2023-03-23T17:25:08;8.57;;;2.95;;
64520;SDS011;50896;46.714;17.322;2023-03-23T17:27:35;5.72;;;3.15;;
64520;SDS011;50896;46.714;17.322;2023-03-23T17:30:03;8.68;;;3.20;;
64520;SDS011;50896;46.714;17.322;2023-03-23T17:32:32;9.23;;;3.15;;
64520;SDS011;50896;46.714;17.322;2023-03-23T17:34:59;11.88;;;3.10;;
64520;SDS011;50896;46.714;17.322;2023-03-23T17:37:26;8.10;;;3.28;;
64520;SDS011;50896;46.714;17.322;2023-03-23T17:39:53;6.70;;;3.90;;
64520;SDS011;50896;46.714;17.322;2023-03-23T17:42:20;6.10;;;3.90;;